createdAt,value
2016-02-02T00:00:26.591Z,0
2016-02-02T00:01:26.594Z,0
2016-02-02T00:02:26.550Z,0
2016-02-02T00:03:26.537Z,0
2016-02-02T00:04:26.525Z,0
2016-02-02T00:05:26.481Z,0
2016-02-02T00:06:26.313Z,0
2016-02-02T00:07:26.456Z,0
2016-02-02T00:08:26.427Z,0
2016-02-02T00:09:26.414Z,0
2016-02-02T00:10:26.370Z,0
2016-02-02T00:11:26.360Z,0
2016-02-02T00:12:26.347Z,0
2016-02-02T00:13:26.303Z,0
2016-02-02T00:14:26.289Z,0
2016-02-02T00:15:26.262Z,0
2016-02-02T00:16:26.234Z,0
2016-02-02T00:17:26.221Z,0
2016-02-02T00:18:26.193Z,0
2016-02-02T00:19:26.179Z,0
2016-02-02T00:20:26.154Z,0
2016-02-02T00:21:26.125Z,0
2016-02-02T00:22:26.113Z,0
2016-02-02T00:23:26.102Z,0
2016-02-02T00:24:26.058Z,0
2016-02-02T00:25:26.045Z,0
2016-02-02T00:26:26.017Z,0
2016-02-02T00:27:26.005Z,0
2016-02-02T00:28:25.992Z,0
2016-02-02T00:29:25.948Z,0
2016-02-02T00:30:25.936Z,0
2016-02-02T00:31:25.907Z,0
2016-02-02T00:32:25.879Z,0
2016-02-02T00:33:25.867Z,0
2016-02-02T00:34:25.839Z,0
2016-02-02T00:35:25.826Z,0
2016-02-02T00:36:25.782Z,0
2016-02-02T00:37:25.770Z,0
2016-02-02T00:38:25.742Z,0
2016-02-02T00:39:25.744Z,0
2016-02-02T00:40:25.699Z,0
2016-02-02T00:41:25.687Z,0
2016-02-02T00:42:25.644Z,0
2016-02-02T00:43:25.631Z,0
2016-02-02T00:44:25.634Z,0
2016-02-02T00:45:25.590Z,0
2016-02-02T00:46:25.577Z,0
2016-02-02T00:47:25.533Z,0
2016-02-02T00:48:25.521Z,0
2016-02-02T00:49:25.492Z,0
2016-02-02T00:50:25.495Z,0
2016-02-02T00:51:25.451Z,0
2016-02-02T00:52:25.438Z,0
2016-02-02T00:53:25.426Z,0
2016-02-02T00:54:25.398Z,0
2016-02-02T00:55:25.353Z,0
2016-02-02T00:56:25.356Z,0
2016-02-02T00:57:25.311Z,0
2016-02-02T00:58:25.300Z,0
2016-02-02T00:59:25.287Z,0
2016-02-02T01:00:25.249Z,0
2016-02-02T01:01:25.236Z,0
2016-02-02T01:02:25.208Z,0
2016-02-02T01:03:25.180Z,0
2016-02-02T01:04:25.182Z,0
2016-02-02T01:05:25.185Z,0
2016-02-02T01:06:25.141Z,0
2016-02-02T01:07:25.097Z,0
2016-02-02T01:08:25.070Z,0
2016-02-02T01:09:25.057Z,0
2016-02-02T01:10:25.013Z,0
2016-02-02T01:11:25.015Z,0
2016-02-02T01:12:24.971Z,0
2016-02-02T01:13:24.959Z,0
2016-02-02T01:14:24.945Z,0
2016-02-02T01:15:24.901Z,0
2016-02-02T01:16:24.889Z,0
2016-02-02T01:17:24.860Z,0
2016-02-02T01:18:24.848Z,0
2016-02-02T01:19:24.820Z,0
2016-02-02T01:20:24.790Z,0
2016-02-02T01:21:24.762Z,0
2016-02-02T01:22:24.765Z,0
2016-02-02T01:23:24.736Z,0
2016-02-02T01:24:24.708Z,0
2016-02-02T01:25:24.695Z,0
2016-02-02T01:26:24.651Z,0
2016-02-02T01:27:24.653Z,0
2016-02-02T01:28:24.609Z,0
2016-02-02T01:29:24.590Z,0
2016-02-02T01:30:24.580Z,0
2016-02-02T01:31:24.535Z,0
2016-02-02T01:32:24.522Z,0
2016-02-02T01:33:24.526Z,0
2016-02-02T01:34:24.496Z,0
2016-02-02T01:35:24.469Z,0
2016-02-02T01:36:24.425Z,0
2016-02-02T01:37:24.413Z,0
2016-02-02T01:38:24.415Z,0
2016-02-02T01:39:24.373Z,0
2016-02-02T01:40:24.344Z,0
2016-02-02T01:41:24.332Z,0
2016-02-02T01:42:24.350Z,0
2016-02-02T01:43:24.290Z,0
2016-02-02T01:44:24.247Z,0
2016-02-02T01:45:24.234Z,0
2016-02-02T01:46:24.222Z,0
2016-02-02T01:47:24.177Z,0
2016-02-02T01:48:24.163Z,0
2016-02-02T01:49:24.139Z,0
2016-02-02T01:50:24.110Z,0
2016-02-02T01:51:24.100Z,0
2016-02-02T01:52:24.071Z,0
2016-02-02T01:53:24.043Z,0
2016-02-02T01:54:24.030Z,0
2016-02-02T01:55:24.001Z,0
2016-02-02T01:56:24.006Z,0
2016-02-02T01:57:23.963Z,0
2016-02-02T01:58:23.934Z,0
2016-02-02T01:59:23.922Z,0
2016-02-02T02:00:23.894Z,0
2016-02-02T02:01:23.866Z,0
2016-02-02T02:02:23.868Z,0
2016-02-02T02:03:23.902Z,0
2016-02-02T02:04:23.812Z,0
2016-02-02T02:05:23.785Z,0
2016-02-02T02:06:23.756Z,0
2016-02-02T02:07:23.775Z,0
2016-02-02T02:08:23.715Z,0
2016-02-02T02:09:23.703Z,0
2016-02-02T02:10:23.674Z,0
2016-02-02T02:11:23.645Z,0
2016-02-02T02:12:23.632Z,0
2016-02-02T02:13:23.589Z,0
2016-02-02T02:14:23.577Z,0
2016-02-02T02:15:23.548Z,0
2016-02-02T02:16:23.535Z,0
2016-02-02T02:17:23.561Z,0
2016-02-02T02:18:23.501Z,0
2016-02-02T02:19:23.472Z,0
2016-02-02T02:20:23.443Z,0
2016-02-02T02:21:23.415Z,0
2016-02-02T02:22:23.403Z,0
2016-02-02T02:23:23.218Z,0
2016-02-02T02:24:23.345Z,0
2016-02-02T02:25:23.318Z,0
2016-02-02T02:26:23.339Z,0
2016-02-02T02:27:23.279Z,0
2016-02-02T02:28:23.251Z,0
2016-02-02T02:29:23.256Z,0
2016-02-02T02:30:23.212Z,0
2016-02-02T02:31:23.182Z,0
2016-02-02T02:32:23.185Z,0
2016-02-02T02:33:23.157Z,0
2016-02-02T02:34:23.145Z,0
2016-02-02T02:35:23.100Z,0
2016-02-02T02:36:23.087Z,0
2016-02-02T02:37:23.059Z,0
2016-02-02T02:38:23.046Z,0
2016-02-02T02:39:23.001Z,0
2016-02-02T02:40:23.003Z,0
2016-02-02T02:41:22.975Z,0
2016-02-02T02:42:22.948Z,0
2016-02-02T02:43:22.935Z,0
2016-02-02T02:44:22.890Z,0
2016-02-02T02:45:22.910Z,0
2016-02-02T02:46:22.896Z,0
2016-02-02T02:47:22.839Z,0
2016-02-02T02:48:22.826Z,0
2016-02-02T02:49:22.782Z,0
2016-02-02T02:50:22.801Z,0
2016-02-02T02:51:22.741Z,0
2016-02-02T02:52:22.729Z,0
2016-02-02T02:53:22.685Z,0
2016-02-02T02:54:22.672Z,0
2016-02-02T02:55:22.643Z,0
2016-02-02T02:56:22.619Z,0
2016-02-02T02:57:22.589Z,0
2016-02-02T02:58:22.593Z,0
2016-02-02T02:59:22.553Z,0
2016-02-02T03:00:22.665Z,0
2016-02-02T03:01:22.512Z,0
2016-02-02T03:02:22.468Z,0
2016-02-02T03:03:22.471Z,0
2016-02-02T03:04:22.462Z,0
2016-02-02T03:05:22.417Z,0
2016-02-02T03:06:22.405Z,0
2016-02-02T03:07:22.377Z,0
2016-02-02T03:08:22.349Z,0
2016-02-02T03:09:22.320Z,0
2016-02-02T03:10:22.307Z,0
2016-02-02T03:11:22.294Z,0
2016-02-02T03:12:22.268Z,0
2016-02-02T03:13:22.239Z,0
2016-02-02T03:14:22.213Z,0
2016-02-02T03:15:22.186Z,0
2016-02-02T03:16:22.173Z,0
2016-02-02T03:17:22.160Z,0
2016-02-02T03:18:22.132Z,0
2016-02-02T03:19:22.104Z,0
2016-02-02T03:20:22.075Z,0
2016-02-02T03:21:22.063Z,0
2016-02-02T03:22:22.049Z,0
2016-02-02T03:23:21.865Z,0
2016-02-02T03:24:22.012Z,0
2016-02-02T03:25:21.968Z,0
2016-02-02T03:26:21.956Z,0
2016-02-02T03:27:21.913Z,0
2016-02-02T03:28:21.900Z,0
2016-02-02T03:29:21.874Z,0
2016-02-02T03:30:21.869Z,0
2016-02-02T03:31:21.856Z,0
2016-02-02T03:32:21.811Z,0
2016-02-02T03:33:21.785Z,0
2016-02-02T03:34:21.772Z,0
2016-02-02T03:35:21.775Z,0
2016-02-02T03:36:21.746Z,0
2016-02-02T03:37:21.718Z,0
2016-02-02T03:38:21.659Z,0
2016-02-02T03:39:21.647Z,0
2016-02-02T03:40:21.618Z,0
2016-02-02T03:41:21.604Z,0
2016-02-02T03:42:21.576Z,0
2016-02-02T03:43:21.546Z,0
2016-02-02T03:44:21.537Z,0
2016-02-02T03:45:21.482Z,0
2016-02-02T03:46:21.458Z,0
2016-02-02T03:47:21.419Z,0
2016-02-02T03:48:21.380Z,0
2016-02-02T03:49:21.379Z,0
2016-02-02T03:50:21.349Z,0
2016-02-02T03:51:21.332Z,0
2016-02-02T03:52:21.300Z,0
2016-02-02T03:53:21.096Z,0
2016-02-02T03:54:21.239Z,0
2016-02-02T03:55:21.208Z,0
2016-02-02T03:56:21.194Z,0
2016-02-02T03:57:21.148Z,0
2016-02-02T03:58:21.134Z,0
2016-02-02T03:59:21.122Z,0
2016-02-02T04:00:21.077Z,0
2016-02-02T04:01:21.062Z,0
2016-02-02T04:02:21.048Z,0
2016-02-02T04:03:21.005Z,0
2016-02-02T04:04:21.026Z,0
2016-02-02T04:05:20.982Z,0
2016-02-02T04:06:20.970Z,0
2016-02-02T04:07:20.927Z,0
2016-02-02T04:08:20.897Z,0
2016-02-02T04:09:20.916Z,0
2016-02-02T04:10:20.856Z,0
2016-02-02T04:11:20.844Z,0
2016-02-02T04:12:20.831Z,0
2016-02-02T04:13:20.818Z,0
2016-02-02T04:14:20.789Z,0
2016-02-02T04:15:20.747Z,0
2016-02-02T04:16:20.734Z,0
2016-02-02T04:17:20.717Z,0
2016-02-02T04:18:20.673Z,0
2016-02-02T04:19:20.661Z,0
2016-02-02T04:20:20.665Z,0
2016-02-02T04:21:20.604Z,0
2016-02-02T04:22:20.591Z,0
2016-02-02T04:23:20.578Z,0
2016-02-02T04:24:20.551Z,0
2016-02-02T04:25:20.523Z,0
2016-02-02T04:26:20.509Z,0
2016-02-02T04:27:20.466Z,0
2016-02-02T04:28:20.313Z,0
2016-02-02T04:29:20.457Z,0
2016-02-02T04:30:20.412Z,0
2016-02-02T04:31:20.384Z,0
2016-02-02T04:32:20.373Z,0
2016-02-02T04:33:20.359Z,0
2016-02-02T04:34:20.331Z,0
2016-02-02T04:35:20.302Z,0
2016-02-02T04:36:20.290Z,0
2016-02-02T04:37:20.246Z,0
2016-02-02T04:38:20.233Z,0
2016-02-02T04:39:20.220Z,0
2016-02-02T04:40:20.176Z,0
2016-02-02T04:41:20.179Z,0
2016-02-02T04:42:20.152Z,0
2016-02-02T04:43:20.107Z,0
2016-02-02T04:44:20.110Z,0
2016-02-02T04:45:20.097Z,0
2016-02-02T04:46:20.068Z,0
2016-02-02T04:47:20.024Z,0
2016-02-02T04:48:20.010Z,0
2016-02-02T04:49:19.983Z,0
2016-02-02T04:50:19.969Z,0
2016-02-02T04:51:19.957Z,0
2016-02-02T04:52:19.913Z,0
2016-02-02T04:53:19.900Z,0
2016-02-02T04:54:19.872Z,0
2016-02-02T04:55:19.858Z,0
2016-02-02T04:56:19.830Z,0
2016-02-02T04:57:19.803Z,0
2016-02-02T04:58:19.790Z,0
2016-02-02T04:59:19.777Z,0
2016-02-02T05:00:19.748Z,0
2016-02-02T05:01:19.706Z,0
2016-02-02T05:02:19.693Z,0
2016-02-02T05:03:19.696Z,0
2016-02-02T05:04:19.651Z,0
2016-02-02T05:05:19.624Z,0
2016-02-02T05:06:19.610Z,0
2016-02-02T05:07:19.614Z,0
2016-02-02T05:08:19.586Z,0
2016-02-02T05:09:19.542Z,0
2016-02-02T05:10:19.528Z,0
2016-02-02T05:11:19.503Z,0
2016-02-02T05:12:19.490Z,0
2016-02-02T05:13:19.445Z,0
2016-02-02T05:14:19.437Z,0
2016-02-02T05:15:19.408Z,0
2016-02-02T05:16:19.379Z,0
2016-02-02T05:17:19.367Z,0
2016-02-02T05:18:19.354Z,0
2016-02-02T05:19:19.325Z,0
2016-02-02T05:20:19.296Z,0
2016-02-02T05:21:19.299Z,0
2016-02-02T05:22:19.271Z,0
2016-02-02T05:23:19.227Z,0
2016-02-02T05:24:19.198Z,0
2016-02-02T05:25:19.185Z,0
2016-02-02T05:26:19.173Z,0
2016-02-02T05:27:19.145Z,0
2016-02-02T05:28:19.148Z,0
2016-02-02T05:29:19.153Z,0
2016-02-02T05:30:18.925Z,0
2016-02-02T05:31:19.068Z,0
2016-02-02T05:32:19.039Z,0
2016-02-02T05:33:19.041Z,0
2016-02-02T05:34:18.983Z,0
2016-02-02T05:35:18.954Z,0
2016-02-02T05:36:18.941Z,0
2016-02-02T05:37:18.928Z,0
2016-02-02T05:38:18.916Z,0
2016-02-02T05:39:18.884Z,0
2016-02-02T05:40:18.855Z,0
2016-02-02T05:41:18.842Z,0
2016-02-02T05:42:18.845Z,0
2016-02-02T05:43:18.785Z,0
2016-02-02T05:44:18.777Z,0
2016-02-02T05:45:18.764Z,0
2016-02-02T05:46:18.735Z,0
2016-02-02T05:47:18.706Z,0
2016-02-02T05:48:18.678Z,0
2016-02-02T05:49:18.665Z,0
2016-02-02T05:50:18.653Z,0
2016-02-02T05:51:18.608Z,0
2016-02-02T05:52:18.595Z,0
2016-02-02T05:53:18.584Z,0
2016-02-02T05:54:18.540Z,0
2016-02-02T05:55:18.526Z,0
2016-02-02T05:56:18.514Z,0
2016-02-02T05:57:18.469Z,0
2016-02-02T05:58:18.456Z,0
2016-02-02T05:59:18.475Z,0
2016-02-02T06:00:18.418Z,0
2016-02-02T06:01:18.384Z,0
2016-02-02T06:02:18.356Z,0
2016-02-02T06:03:18.375Z,0
2016-02-02T06:04:18.315Z,0
2016-02-02T06:05:18.302Z,0
2016-02-02T06:06:18.289Z,0
2016-02-02T06:07:18.340Z,0
2016-02-02T06:08:18.263Z,0
2016-02-02T06:09:18.220Z,0
2016-02-02T06:10:18.207Z,0
2016-02-02T06:11:18.179Z,0
2016-02-02T06:12:18.166Z,0
2016-02-02T06:13:18.121Z,0
2016-02-02T06:14:18.096Z,0
2016-02-02T06:15:18.099Z,0
2016-02-02T06:16:18.054Z,0
2016-02-02T06:17:18.041Z,0
2016-02-02T06:18:18.060Z,0
2016-02-02T06:19:18.017Z,0
2016-02-02T06:20:17.959Z,0
2016-02-02T06:21:17.946Z,0
2016-02-02T06:22:17.948Z,0
2016-02-02T06:23:17.951Z,0
2016-02-02T06:24:17.891Z,0
2016-02-02T06:25:17.847Z,0
2016-02-02T06:26:17.822Z,0
2016-02-02T06:27:17.825Z,0
2016-02-02T06:28:17.797Z,0
2016-02-02T06:29:17.752Z,0
2016-02-02T06:30:17.755Z,0
2016-02-02T06:31:17.736Z,0
2016-02-02T06:32:17.724Z,0
2016-02-02T06:33:17.663Z,0
2016-02-02T06:34:17.666Z,0
2016-02-02T06:35:17.637Z,0
2016-02-02T06:36:17.626Z,0
2016-02-02T06:37:17.597Z,0
2016-02-02T06:38:17.569Z,0
2016-02-02T06:39:17.540Z,0
2016-02-02T06:40:17.512Z,0
2016-02-02T06:41:17.499Z,0
2016-02-02T06:42:17.470Z,0
2016-02-02T06:43:17.473Z,0
2016-02-02T06:44:17.444Z,0
2016-02-02T06:45:17.401Z,0
2016-02-02T06:46:17.371Z,0
2016-02-02T06:47:17.374Z,0
2016-02-02T06:48:17.329Z,0
2016-02-02T06:49:17.333Z,0
2016-02-02T06:50:17.351Z,0
2016-02-02T06:51:17.275Z,0
2016-02-02T06:52:17.248Z,0
2016-02-02T06:53:17.236Z,0
2016-02-02T06:54:17.238Z,0
2016-02-02T06:55:17.177Z,0
2016-02-02T06:56:17.165Z,0
2016-02-02T06:57:17.153Z,5
2016-02-02T06:58:17.142Z,5
2016-02-02T06:59:17.112Z,5
2016-02-02T07:00:17.068Z,5
2016-02-02T07:01:17.059Z,5
2016-02-02T07:02:17.029Z,5
2016-02-02T07:03:17.017Z,10
2016-02-02T07:04:17.003Z,10
2016-02-02T07:05:17.006Z,10
2016-02-02T07:06:16.962Z,10
2016-02-02T07:07:16.918Z,10
2016-02-02T07:08:16.906Z,15
2016-02-02T07:09:16.894Z,15
2016-02-02T07:10:16.865Z,15
2016-02-02T07:11:16.821Z,15
2016-02-02T07:12:16.807Z,20
2016-02-02T07:13:16.800Z,20
2016-02-02T07:14:16.803Z,20
2016-02-02T07:15:16.742Z,20
2016-02-02T07:16:16.714Z,25
2016-02-02T07:17:16.716Z,25
2016-02-02T07:18:16.690Z,30
2016-02-02T07:19:16.660Z,30
2016-02-02T07:20:16.617Z,35
2016-02-02T07:21:16.592Z,35
2016-02-02T07:22:16.596Z,30
2016-02-02T07:23:16.567Z,35
2016-02-02T07:24:16.539Z,40
2016-02-02T07:25:16.509Z,40
2016-02-02T07:26:16.480Z,40
2016-02-02T07:27:16.465Z,40
2016-02-02T07:28:16.452Z,45
2016-02-02T07:29:16.472Z,45
2016-02-02T07:30:16.411Z,50
2016-02-02T07:31:16.233Z,50
2016-02-02T07:32:16.532Z,50
2016-02-02T07:33:19.198Z,55
2016-02-02T07:34:26.329Z,55
2016-02-02T07:35:16.993Z,55
2016-02-02T07:36:16.262Z,60
2016-02-02T07:37:16.342Z,60
2016-02-02T07:38:16.220Z,65
2016-02-02T07:39:16.223Z,65
2016-02-02T07:40:16.185Z,60
2016-02-02T07:41:16.157Z,65
2016-02-02T07:42:16.176Z,65
2016-02-02T07:43:16.100Z,65
2016-02-02T07:44:16.088Z,65
2016-02-02T07:45:16.059Z,60
2016-02-02T07:46:17.265Z,55
2016-02-02T07:47:16.032Z,55
2016-02-02T07:48:15.990Z,55
2016-02-02T07:49:15.978Z,60
2016-02-02T07:50:15.951Z,60
2016-02-02T07:51:15.940Z,55
2016-02-02T07:52:15.754Z,55
2016-02-02T07:53:15.882Z,55
2016-02-02T07:54:15.884Z,55
2016-02-02T07:55:15.845Z,55
2016-02-02T07:56:16.394Z,55
2016-02-02T07:57:15.788Z,55
2016-02-02T07:58:15.775Z,60
2016-02-02T07:59:15.795Z,60
2016-02-02T08:00:15.735Z,55
2016-02-02T08:01:15.707Z,60
2016-02-02T08:02:15.726Z,65
2016-02-02T08:03:15.651Z,65
2016-02-02T08:04:15.647Z,55
2016-02-02T08:05:15.607Z,45
2016-02-02T08:06:15.593Z,45
2016-02-02T08:07:15.583Z,45
2016-02-02T08:08:15.554Z,50
2016-02-02T08:09:15.541Z,55
2016-02-02T08:10:15.544Z,55
2016-02-02T08:11:15.468Z,55
2016-02-02T08:12:15.471Z,55
2016-02-02T08:13:15.442Z,60
2016-02-02T08:14:15.406Z,75
2016-02-02T08:15:15.397Z,85
2016-02-02T08:16:15.370Z,90
2016-02-02T08:17:15.342Z,90
2016-02-02T08:18:15.314Z,105
2016-02-02T08:19:15.300Z,110
2016-02-02T08:20:15.272Z,105
2016-02-02T08:21:15.262Z,110
2016-02-02T08:22:15.406Z,115
2016-02-02T08:23:15.220Z,110
2016-02-02T08:24:15.192Z,120
2016-02-02T08:25:15.164Z,135
2016-02-02T08:26:15.151Z,135
2016-02-02T08:27:15.123Z,130
2016-02-02T08:28:15.112Z,130
2016-02-02T08:29:15.083Z,140
2016-02-02T08:30:15.058Z,120
2016-02-02T08:31:15.030Z,105
2016-02-02T08:32:15.032Z,100
2016-02-02T08:33:14.973Z,95
2016-02-02T08:34:14.976Z,105
2016-02-02T08:35:14.947Z,110
2016-02-02T08:36:14.918Z,110
2016-02-02T08:37:14.890Z,110
2016-02-02T08:38:14.877Z,115
2016-02-02T08:39:14.849Z,105
2016-02-02T08:40:14.820Z,100
2016-02-02T08:41:14.838Z,105
2016-02-02T08:42:14.780Z,110
2016-02-02T08:43:14.766Z,105
2016-02-02T08:44:14.738Z,100
2016-02-02T08:45:14.725Z,115
2016-02-02T08:46:14.681Z,125
2016-02-02T08:47:14.671Z,130
2016-02-02T08:48:14.658Z,140
2016-02-02T08:49:14.613Z,145
2016-02-02T08:50:14.648Z,155
2016-02-02T08:51:14.590Z,165
2016-02-02T08:52:14.546Z,185
2016-02-02T08:53:14.533Z,205
2016-02-02T08:54:14.363Z,215
2016-02-02T08:55:14.476Z,220
2016-02-02T08:56:14.451Z,200
2016-02-02T08:57:14.454Z,220
2016-02-02T08:58:14.416Z,245
2016-02-02T08:59:14.387Z,245
2016-02-02T09:00:14.375Z,215
2016-02-02T09:01:14.347Z,205
2016-02-02T09:02:14.411Z,200
2016-02-02T09:03:14.290Z,195
2016-02-02T09:04:14.276Z,230
2016-02-02T09:05:14.265Z,280
2016-02-02T09:06:14.267Z,275
2016-02-02T09:07:14.207Z,290
2016-02-02T09:08:14.198Z,265
2016-02-02T09:09:14.154Z,230
2016-02-02T09:10:14.141Z,210
2016-02-02T09:11:14.113Z,215
2016-02-02T09:12:14.115Z,275
2016-02-02T09:13:14.073Z,290
2016-02-02T09:14:14.061Z,275
2016-02-02T09:15:14.063Z,260
2016-02-02T09:16:14.004Z,225
2016-02-02T09:17:14.008Z,185
2016-02-02T09:18:13.947Z,185
2016-02-02T09:19:13.950Z,215
2016-02-02T09:20:13.912Z,215
2016-02-02T09:21:13.914Z,190
2016-02-02T09:22:13.902Z,180
2016-02-02T09:23:13.841Z,175
2016-02-02T09:24:13.845Z,210
2016-02-02T09:25:13.863Z,235
2016-02-02T09:26:13.769Z,270
2016-02-02T09:27:13.619Z,310
2016-02-02T09:28:13.731Z,320
2016-02-02T09:29:13.702Z,325
2016-02-02T09:30:13.689Z,285
2016-02-02T09:31:13.661Z,235
2016-02-02T09:32:13.632Z,190
2016-02-02T09:33:13.619Z,180
2016-02-02T09:34:13.591Z,175
2016-02-02T09:35:13.563Z,180
2016-02-02T09:36:13.581Z,170
2016-02-02T09:37:13.506Z,160
2016-02-02T09:38:13.526Z,150
2016-02-02T09:39:13.481Z,150
2016-02-02T09:40:13.452Z,170
2016-02-02T09:41:13.439Z,180
2016-02-02T09:42:13.411Z,185
2016-02-02T09:43:13.382Z,230
2016-02-02T09:44:13.354Z,260
2016-02-02T09:45:13.325Z,260
2016-02-02T09:46:13.328Z,225
2016-02-02T09:47:13.284Z,225
2016-02-02T09:48:13.270Z,265
2016-02-02T09:49:13.258Z,295
2016-02-02T09:50:13.230Z,295
2016-02-02T09:51:13.203Z,275
2016-02-02T09:52:13.190Z,255
2016-02-02T09:53:13.146Z,245
2016-02-02T09:54:13.116Z,255
2016-02-02T09:55:13.104Z,250
2016-02-02T09:56:13.080Z,260
2016-02-02T09:57:13.052Z,275
2016-02-02T09:58:13.867Z,275
2016-02-02T09:59:13.791Z,290
2016-02-02T10:00:13.513Z,320
2016-02-02T10:01:13.516Z,325
2016-02-02T10:02:13.366Z,290
2016-02-02T10:03:13.338Z,305
2016-02-02T10:04:12.920Z,280
2016-02-02T10:05:12.875Z,255
2016-02-02T10:06:12.925Z,250
2016-02-02T10:07:12.833Z,250
2016-02-02T10:08:12.820Z,250
2016-02-02T10:09:13.059Z,240
2016-02-02T10:10:13.109Z,270
2016-02-02T10:11:13.501Z,330
2016-02-02T10:12:12.770Z,390
2016-02-02T10:13:12.694Z,430
2016-02-02T10:14:12.667Z,415
2016-02-02T10:15:12.653Z,375
2016-02-02T10:16:12.624Z,295
2016-02-02T10:17:12.595Z,265
2016-02-02T10:18:12.583Z,240
2016-02-02T10:19:12.586Z,220
2016-02-02T10:20:12.525Z,280
2016-02-02T10:21:12.513Z,370
2016-02-02T10:22:12.483Z,445
2016-02-02T10:23:12.486Z,485
2016-02-02T10:24:12.443Z,465
2016-02-02T10:25:12.430Z,385
2016-02-02T10:26:12.401Z,310
2016-02-02T10:27:12.376Z,285
2016-02-02T10:28:12.348Z,250
2016-02-02T10:29:12.335Z,225
2016-02-02T10:30:12.306Z,225
2016-02-02T10:31:12.294Z,230
2016-02-02T10:32:12.253Z,240
2016-02-02T10:33:12.256Z,235
2016-02-02T10:34:12.258Z,230
2016-02-02T10:35:12.193Z,250
2016-02-02T10:36:12.181Z,260
2016-02-02T10:37:12.137Z,260
2016-02-02T10:38:12.124Z,270
2016-02-02T10:39:12.127Z,260
2016-02-02T10:40:12.084Z,245
2016-02-02T10:41:12.086Z,255
2016-02-02T10:42:12.058Z,270
2016-02-02T10:43:12.029Z,280
2016-02-02T10:44:11.985Z,285
2016-02-02T10:45:11.972Z,280
2016-02-02T10:46:12.100Z,285
2016-02-02T10:47:11.931Z,320
2016-02-02T10:48:11.933Z,320
2016-02-02T10:49:11.874Z,290
2016-02-02T10:50:11.847Z,270
2016-02-02T10:51:11.849Z,260
2016-02-02T10:52:11.804Z,240
2016-02-02T10:53:11.775Z,235
2016-02-02T10:54:11.763Z,220
2016-02-02T10:55:11.766Z,210
2016-02-02T10:56:11.721Z,210
2016-02-02T10:57:11.712Z,215
2016-02-02T10:58:11.686Z,225
2016-02-02T10:59:11.658Z,230
2016-02-02T11:00:11.628Z,235
2016-02-02T11:01:11.600Z,270
2016-02-02T11:02:11.572Z,345
2016-02-02T11:03:11.590Z,360
2016-02-02T11:04:11.530Z,350
2016-02-02T11:05:11.502Z,335
2016-02-02T11:06:11.488Z,330
2016-02-02T11:07:11.476Z,335
2016-02-02T11:08:11.431Z,350
2016-02-02T11:09:11.419Z,350
2016-02-02T11:10:11.395Z,340
2016-02-02T11:11:11.507Z,310
2016-02-02T11:12:11.353Z,310
2016-02-02T11:13:11.356Z,350
2016-02-02T11:14:11.296Z,385
2016-02-02T11:15:11.285Z,375
2016-02-02T11:16:11.271Z,365
2016-02-02T11:17:11.227Z,370
2016-02-02T11:18:11.216Z,350
2016-02-02T11:19:11.186Z,315
2016-02-02T11:20:11.158Z,330
2016-02-02T11:21:11.144Z,355
2016-02-02T11:22:11.135Z,360
2016-02-02T11:23:11.091Z,340
2016-02-02T11:24:11.078Z,325
2016-02-02T11:25:11.049Z,320
2016-02-02T11:26:11.036Z,335
2016-02-02T11:27:11.009Z,335
2016-02-02T11:28:10.988Z,335
2016-02-02T11:29:10.990Z,345
2016-02-02T11:30:10.929Z,355
2016-02-02T11:31:10.933Z,355
2016-02-02T11:32:10.888Z,360
2016-02-02T11:33:10.876Z,375
2016-02-02T11:34:10.848Z,385
2016-02-02T11:35:10.836Z,410
2016-02-02T11:36:10.823Z,410
2016-02-02T11:37:10.779Z,375
2016-02-02T11:38:10.922Z,315
2016-02-02T11:39:10.736Z,290
2016-02-02T11:40:10.724Z,295
2016-02-02T11:41:10.682Z,305
2016-02-02T11:42:10.669Z,315
2016-02-02T11:43:10.657Z,310
2016-02-02T11:44:10.612Z,295
2016-02-02T11:45:10.619Z,285
2016-02-02T11:46:10.575Z,290
2016-02-02T11:47:10.561Z,290
2016-02-02T11:48:10.581Z,270
2016-02-02T11:49:10.506Z,245
2016-02-02T11:50:10.509Z,255
2016-02-02T11:51:10.464Z,295
2016-02-02T11:52:10.451Z,330
2016-02-02T11:53:10.437Z,355
2016-02-02T11:54:10.395Z,370
2016-02-02T11:55:10.381Z,375
2016-02-02T11:56:10.352Z,360
2016-02-02T11:57:10.323Z,340
2016-02-02T11:58:09.610Z,320
2016-02-02T11:59:10.129Z,325
2016-02-02T12:00:10.273Z,330
2016-02-02T12:01:10.244Z,330
2016-02-02T12:02:10.215Z,330
2016-02-02T12:03:10.186Z,310
2016-02-02T12:04:10.177Z,265
2016-02-02T12:05:10.165Z,235
2016-02-02T12:06:10.151Z,245
2016-02-02T12:07:10.093Z,240
2016-02-02T12:08:10.080Z,230
2016-02-02T12:09:10.052Z,220
2016-02-02T12:10:10.022Z,245
2016-02-02T12:11:10.011Z,235
2016-02-02T12:12:09.983Z,255
2016-02-02T12:13:09.969Z,240
2016-02-02T12:14:09.941Z,230
2016-02-02T12:15:09.974Z,280
2016-02-02T12:16:09.883Z,335
2016-02-02T12:17:09.887Z,315
2016-02-02T12:18:09.842Z,250
2016-02-02T12:19:09.830Z,290
2016-02-02T12:20:09.800Z,300
2016-02-02T12:21:09.787Z,280
2016-02-02T12:22:09.760Z,270
2016-02-02T12:23:09.731Z,260
2016-02-02T12:24:09.719Z,260
2016-02-02T12:25:09.689Z,240
2016-02-02T12:26:09.661Z,235
2016-02-02T12:27:09.664Z,215
2016-02-02T12:28:09.605Z,205
2016-02-02T12:29:09.617Z,190
2016-02-02T12:30:09.575Z,185
2016-02-02T12:31:09.545Z,185
2016-02-02T12:32:09.533Z,180
2016-02-02T12:33:09.519Z,180
2016-02-02T12:34:09.474Z,165
2016-02-02T12:35:09.463Z,175
2016-02-02T12:36:09.450Z,180
2016-02-02T12:37:09.421Z,160
2016-02-02T12:38:09.376Z,170
2016-02-02T12:39:09.379Z,185
2016-02-02T12:40:09.335Z,195
2016-02-02T12:41:09.307Z,205
2016-02-02T12:42:09.312Z,210
2016-02-02T12:43:09.267Z,220
2016-02-02T12:44:09.253Z,220
2016-02-02T12:45:09.226Z,255
2016-02-02T12:46:09.212Z,245
2016-02-02T12:47:09.168Z,210
2016-02-02T12:48:09.170Z,180
2016-02-02T12:49:09.142Z,140
2016-02-02T12:50:09.107Z,115
2016-02-02T12:51:09.067Z,110
2016-02-02T12:52:09.013Z,85
2016-02-02T12:53:09.020Z,80
2016-02-02T12:54:08.982Z,75
2016-02-02T12:55:08.932Z,70
2016-02-02T12:56:08.899Z,60
2016-02-02T12:57:08.882Z,60
2016-02-02T12:58:08.850Z,80
2016-02-02T12:59:08.834Z,90
2016-02-02T13:00:08.809Z,105
2016-02-02T13:01:08.794Z,110
2016-02-02T13:02:08.734Z,110
2016-02-02T13:03:08.751Z,105
2016-02-02T13:04:08.690Z,85
2016-02-02T13:05:08.756Z,80
2016-02-02T13:06:08.648Z,80
2016-02-02T13:07:08.681Z,85
2016-02-02T13:08:08.591Z,85
2016-02-02T13:09:08.577Z,105
2016-02-02T13:10:08.579Z,115
2016-02-02T13:11:08.535Z,140
2016-02-02T13:12:08.490Z,140
2016-02-02T13:13:08.481Z,115
2016-02-02T13:14:08.467Z,105
2016-02-02T13:15:08.423Z,110
2016-02-02T13:16:08.395Z,120
2016-02-02T13:17:08.414Z,140
2016-02-02T13:18:08.370Z,165
2016-02-02T13:19:08.215Z,160
2016-02-02T13:20:08.316Z,155
2016-02-02T13:21:08.288Z,160
2016-02-02T13:22:08.274Z,160
2016-02-02T13:23:08.230Z,140
2016-02-02T13:24:08.204Z,125
2016-02-02T13:25:08.035Z,100
2016-02-02T13:26:08.163Z,80
2016-02-02T13:27:08.135Z,55
2016-02-02T13:28:08.122Z,55
2016-02-02T13:29:08.093Z,55
2016-02-02T13:30:08.067Z,60
2016-02-02T13:31:08.038Z,60
2016-02-02T13:32:08.026Z,65
2016-02-02T13:33:07.982Z,60
2016-02-02T13:34:07.984Z,70
2016-02-02T13:35:07.941Z,70
2016-02-02T13:36:07.912Z,75
2016-02-02T13:37:07.899Z,70
2016-02-02T13:38:07.871Z,75
2016-02-02T13:39:07.889Z,65
2016-02-02T13:40:07.814Z,60
2016-02-02T13:41:07.801Z,60
2016-02-02T13:42:07.804Z,60
2016-02-02T13:43:07.775Z,55
2016-02-02T13:44:07.716Z,45
2016-02-02T13:45:07.719Z,35
2016-02-02T13:46:07.691Z,25
2016-02-02T13:47:07.677Z,30
2016-02-02T13:48:07.618Z,35
2016-02-02T13:49:07.714Z,30
2016-02-02T13:50:07.579Z,50
2016-02-02T13:51:07.550Z,70
2016-02-02T13:52:07.522Z,55
2016-02-02T13:53:07.555Z,55
2016-02-02T13:54:07.480Z,60
2016-02-02T13:55:07.469Z,60
2016-02-02T13:56:07.424Z,70
2016-02-02T13:57:07.397Z,70
2016-02-02T13:58:07.373Z,65
2016-02-02T13:59:07.376Z,65
2016-02-02T14:00:07.332Z,50
2016-02-02T14:01:07.319Z,45
2016-02-02T14:02:07.280Z,40
2016-02-02T14:03:07.283Z,45
2016-02-02T14:04:07.253Z,50
2016-02-02T14:05:07.225Z,50
2016-02-02T14:06:07.431Z,55
2016-02-02T14:07:07.168Z,45
2016-02-02T14:08:07.139Z,70
2016-02-02T14:09:07.110Z,70
2016-02-02T14:10:07.082Z,70
2016-02-02T14:11:07.100Z,55
2016-02-02T14:12:07.057Z,35
2016-02-02T14:13:07.028Z,25
2016-02-02T14:14:07.000Z,40
2016-02-02T14:15:06.972Z,40
2016-02-02T14:16:06.958Z,50
2016-02-02T14:17:06.962Z,50
2016-02-02T14:18:06.886Z,50
2016-02-02T14:19:06.936Z,45
2016-02-02T14:20:06.689Z,45